createdAt,value
2023-02-15T00:00:12.145Z,102495.31
2023-02-15T00:02:41.040Z,102504.97
2023-02-15T00:05:09.927Z,102499.75
2023-02-15T00:07:38.141Z,102493.88
2023-02-15T00:10:08.442Z,102495.50
2023-02-15T00:12:36.651Z,102493.75
2023-02-15T00:15:04.416Z,102498.91
2023-02-15T00:17:32.409Z,102493.69
2023-02-15T00:20:00.346Z,102500.78
2023-02-15T00:22:29.012Z,102501.50
2023-02-15T00:24:57.059Z,102498.91
2023-02-15T00:27:25.576Z,102501.31
2023-02-15T00:29:53.180Z,102503.97
2023-02-15T00:32:21.650Z,102491.81
2023-02-15T00:34:49.762Z,102492.84
2023-02-15T00:37:17.966Z,102487.72
2023-02-15T00:39:48.516Z,102487.94
2023-02-15T00:42:16.141Z,102493.03
2023-02-15T00:44:44.562Z,102488.81
2023-02-15T00:47:12.233Z,102494.09
2023-02-15T00:49:40.145Z,102481.78
2023-02-15T00:52:08.219Z,102479.16
2023-02-15T00:54:39.700Z,102484.34
2023-02-15T00:57:07.523Z,102484.19
2023-02-15T00:59:35.124Z,102472.94
2023-02-15T01:02:03.206Z,102475.34
2023-02-15T01:04:31.852Z,102475.53
2023-02-15T01:07:00.447Z,102468.50
2023-02-15T01:09:28.482Z,102464.91
2023-02-15T01:11:57.669Z,102465.75
2023-02-15T01:14:27.657Z,102460.00
2023-02-15T01:16:55.203Z,102467.28
2023-02-15T01:19:23.328Z,102466.66
2023-02-15T01:21:50.949Z,102467.16
2023-02-15T01:24:19.328Z,102464.56
2023-02-15T01:26:47.520Z,102460.94
2023-02-15T01:29:15.610Z,102462.63
2023-02-15T01:31:43.612Z,102471.31
2023-02-15T01:34:11.172Z,102462.91
2023-02-15T01:36:40.430Z,102474.47
2023-02-15T01:39:09.069Z,102461.31
2023-02-15T01:41:37.044Z,102462.97
2023-02-15T01:44:05.433Z,102455.16
2023-02-15T01:46:46.358Z,102460.78
2023-02-15T01:49:20.826Z,102460.91
2023-02-15T01:51:53.503Z,102466.00
2023-02-15T01:54:33.819Z,102462.38
2023-02-15T01:57:05.962Z,102455.53
2023-02-15T01:59:36.220Z,102453.94
2023-02-15T02:02:07.206Z,102460.13
2023-02-15T02:04:50.449Z,102457.50
2023-02-15T02:07:27.831Z,102453.31
2023-02-15T02:09:56.372Z,102453.25
2023-02-15T02:12:27.110Z,102449.03
2023-02-15T02:14:55.796Z,102454.06
2023-02-15T02:17:46.259Z,102453.13
2023-02-15T02:20:29.578Z,102448.88
2023-02-15T02:23:09.710Z,102437.28
2023-02-15T02:25:56.297Z,102438.03
2023-02-15T02:28:25.541Z,102445.22
2023-02-15T02:30:56.544Z,102438.97
2023-02-15T02:33:34.358Z,102448.69
2023-02-15T02:36:17.953Z,102444.47
2023-02-15T02:39:01.384Z,102435.56
2023-02-15T02:42:03.949Z,102425.00
2023-02-15T02:45:04.003Z,102425.00
2023-02-15T02:47:48.974Z,102430.34
2023-02-15T02:50:20.162Z,102423.56
2023-02-15T02:52:50.158Z,102423.50
2023-02-15T02:55:30.754Z,102420.09
2023-02-15T02:58:04.262Z,102420.22
2023-02-15T03:00:56.192Z,102426.34
2023-02-15T03:03:43.417Z,102411.59
2023-02-15T03:06:20.093Z,102402.78
2023-02-15T03:08:52.512Z,102398.34
2023-02-15T03:11:20.589Z,102401.72
2023-02-15T03:13:50.539Z,102404.50
2023-02-15T03:16:27.490Z,102399.34
2023-02-15T03:18:58.897Z,102394.78
2023-02-15T03:21:37.284Z,102387.81
2023-02-15T03:24:16.094Z,102389.47
2023-02-15T03:26:48.509Z,102389.63
2023-02-15T03:29:21.029Z,102381.88
2023-02-15T03:32:02.758Z,102377.72
2023-02-15T03:34:31.369Z,102377.75
2023-02-15T03:37:24.428Z,102371.66
2023-02-15T03:40:23.161Z,102369.81
2023-02-15T03:42:59.697Z,102373.34
2023-02-15T03:45:31.995Z,102371.69
2023-02-15T03:48:02.590Z,102372.56
2023-02-15T03:50:56.320Z,102372.56
2023-02-15T03:53:26.351Z,102371.06
2023-02-15T03:55:57.314Z,102380.00
2023-02-15T03:58:43.917Z,102374.84
2023-02-15T04:01:46.159Z,102369.75
2023-02-15T04:04:21.002Z,102364.69
2023-02-15T04:06:49.058Z,102369.16
2023-02-15T04:09:35.107Z,102376.06
2023-02-15T04:12:03.258Z,102374.34
2023-02-15T04:14:50.042Z,102377.56
2023-02-15T04:17:17.621Z,102371.50
2023-02-15T04:20:04.113Z,102363.63
2023-02-15T04:22:50.826Z,102367.31
2023-02-15T04:25:19.578Z,102365.69
2023-02-15T04:27:53.939Z,102364.72
2023-02-15T04:30:25.170Z,102366.22
2023-02-15T04:32:56.070Z,102369.75
2023-02-15T04:35:24.108Z,102370.78
2023-02-15T04:37:51.867Z,102371.59
2023-02-15T04:40:19.905Z,102368.16
2023-02-15T04:42:51.206Z,102377.69
2023-02-15T04:45:19.509Z,102376.84
2023-02-15T04:47:47.616Z,102371.72
2023-02-15T04:50:16.022Z,102373.22
2023-02-15T04:52:43.596Z,102367.06
2023-02-15T04:55:11.800Z,102374.22
2023-02-15T04:57:39.341Z,102383.94
2023-02-15T05:00:09.540Z,102382.44
2023-02-15T05:02:37.882Z,102378.94
2023-02-15T05:05:06.310Z,102380.78
2023-02-15T05:07:34.442Z,102369.50
2023-02-15T05:10:02.440Z,102364.44
2023-02-15T05:12:30.482Z,102373.19
2023-02-15T05:14:58.100Z,102374.06
2023-02-15T05:17:26.516Z,102366.13
2023-02-15T05:19:54.738Z,102370.44
2023-02-15T05:22:22.502Z,102369.59
2023-02-15T05:25:08.969Z,102367.94
2023-02-15T05:27:56.045Z,102370.56
2023-02-15T05:30:23.770Z,102376.69
2023-02-15T05:32:51.686Z,102372.34
2023-02-15T05:35:19.814Z,102377.53
2023-02-15T05:37:47.870Z,102381.00
2023-02-15T05:40:16.521Z,102374.97
2023-02-15T05:42:44.920Z,102381.84
2023-02-15T05:45:12.760Z,102381.91
2023-02-15T05:47:41.335Z,102383.38
2023-02-15T05:50:10.989Z,102375.72
2023-02-15T05:52:38.622Z,102382.69
2023-02-15T05:55:06.912Z,102383.59
2023-02-15T05:57:34.855Z,102387.06
2023-02-15T06:00:05.403Z,102389.78
2023-02-15T06:02:40.569Z,102385.44
2023-02-15T06:05:10.217Z,102387.19
2023-02-15T06:07:38.218Z,102391.66
2023-02-15T06:10:06.950Z,102401.16
2023-02-15T06:12:34.905Z,102392.53
2023-02-15T06:15:03.636Z,102408.91
2023-02-15T06:17:31.454Z,102408.97
2023-02-15T06:19:59.460Z,102408.94
2023-02-15T06:22:27.083Z,102414.03
2023-02-15T06:24:54.631Z,102418.22
2023-02-15T06:27:22.625Z,102415.66
2023-02-15T06:29:50.267Z,102417.09
2023-02-15T06:32:18.223Z,102421.47
2023-02-15T06:34:48.510Z,102423.13
2023-02-15T06:37:16.293Z,102427.41
2023-02-15T06:39:45.201Z,102423.91
2023-02-15T06:42:13.370Z,102429.06
2023-02-15T06:44:41.461Z,102429.81
2023-02-15T06:47:09.416Z,102427.94
2023-02-15T06:49:38.375Z,102429.66
2023-02-15T06:52:07.352Z,102432.13
2023-02-15T06:54:35.045Z,102421.56
2023-02-15T06:57:02.952Z,102430.13
2023-02-15T06:59:30.639Z,102427.41
2023-02-15T07:01:58.641Z,102425.63
2023-02-15T07:04:27.049Z,102421.91
2023-02-15T07:06:54.725Z,102415.59
2023-02-15T07:09:23.562Z,102417.00
2023-02-15T07:12:09.931Z,102431.56
2023-02-15T07:14:37.426Z,102430.50
2023-02-15T07:17:11.669Z,102426.72
2023-02-15T07:19:43.155Z,102424.69
2023-02-15T07:22:11.171Z,102426.16
2023-02-15T07:24:39.320Z,102430.47
2023-02-15T07:27:11.416Z,102426.66
2023-02-15T07:29:39.752Z,102421.03
2023-02-15T07:32:08.203Z,102420.28
2023-02-15T07:34:35.756Z,102416.25
2023-02-15T07:37:03.371Z,102417.53
2023-02-15T07:39:31.811Z,102416.13
2023-02-15T07:42:01.460Z,102423.75
2023-02-15T07:44:32.299Z,102420.88
2023-02-15T07:47:00.295Z,102422.72
2023-02-15T07:49:27.789Z,102425.94
2023-02-15T07:51:55.339Z,102421.09
2023-02-15T07:54:23.809Z,102424.81
2023-02-15T07:56:52.153Z,102432.13
2023-02-15T07:59:19.719Z,102430.09
2023-02-15T08:01:47.598Z,102431.88
2023-02-15T08:04:15.705Z,102428.50
2023-02-15T08:06:43.262Z,102431.75
2023-02-15T08:09:15.470Z,102426.81
2023-02-15T08:11:43.807Z,102424.22
2023-02-15T08:14:15.063Z,102430.09
2023-02-15T08:16:51.076Z,102433.56
2023-02-15T08:19:29.741Z,102435.06
2023-02-15T08:22:06.337Z,102438.84
2023-02-15T08:24:38.313Z,102427.00
2023-02-15T08:27:07.845Z,102424.69
2023-02-15T08:29:37.336Z,102428.59
2023-02-15T08:32:07.824Z,102425.44
2023-02-15T08:34:38.651Z,102418.56
2023-02-15T08:37:07.163Z,102415.00
2023-02-15T08:39:35.081Z,102417.41
2023-02-15T08:42:03.274Z,102416.44
2023-02-15T08:44:30.988Z,102420.81
2023-02-15T08:47:04.634Z,102422.41
2023-02-15T08:49:32.994Z,102423.78
2023-02-15T08:52:01.653Z,102416.72
2023-02-15T08:54:29.594Z,102406.16
2023-02-15T08:56:57.302Z,102414.38
2023-02-15T08:59:27.782Z,102407.38
2023-02-15T09:01:56.415Z,102414.88
2023-02-15T09:04:24.445Z,102413.16
2023-02-15T09:06:53.247Z,102411.59
2023-02-15T09:09:22.376Z,102405.75
2023-02-15T09:11:58.576Z,102407.63
2023-02-15T09:14:28.402Z,102407.59
2023-02-15T09:16:56.185Z,102404.16
2023-02-15T09:19:25.534Z,102398.69
2023-02-15T09:21:54.375Z,102395.91
2023-02-15T09:24:22.488Z,102398.88
2023-02-15T09:26:51.528Z,102397.38
2023-02-15T09:29:20.169Z,102395.53
2023-02-15T09:31:51.185Z,102388.13
2023-02-15T09:34:22.214Z,102390.88
2023-02-15T09:36:51.317Z,102388.41
2023-02-15T09:39:29.263Z,102388.56
2023-02-15T09:42:12.931Z,102394.59
2023-02-15T09:45:08.008Z,102388.38
2023-02-15T09:48:07.117Z,102388.09
2023-02-15T09:51:13.255Z,102383.66
2023-02-15T09:53:47.445Z,102382.13
2023-02-15T09:56:46.239Z,102383.63
2023-02-15T09:59:16.961Z,102383.88
2023-02-15T10:02:18.347Z,102373.59
2023-02-15T10:05:01.396Z,102380.31
2023-02-15T10:07:57.010Z,102373.34
2023-02-15T10:10:47.259Z,102375.69
2023-02-15T10:13:20.977Z,102366.28
2023-02-15T10:16:00.280Z,102368.41
2023-02-15T10:18:39.252Z,102367.56
2023-02-15T10:22:00.827Z,102366.44
2023-02-15T10:25:00.150Z,102369.84
2023-02-15T10:27:39.443Z,102366.47
2023-02-15T10:30:14.422Z,102362.97
2023-02-15T10:33:05.111Z,102358.72
2023-02-15T10:36:13.185Z,102358.03
2023-02-15T10:38:54.863Z,102352.53
2023-02-15T10:41:42.994Z,102354.94
2023-02-15T10:44:39.576Z,102352.06
2023-02-15T10:47:31.967Z,102341.84
2023-02-15T10:50:39.190Z,102341.69
2023-02-15T10:53:26.483Z,102341.38
2023-02-15T10:56:02.592Z,102344.88
2023-02-15T10:58:45.956Z,102340.47
2023-02-15T11:01:37.419Z,102329.72
2023-02-15T11:04:11.979Z,102327.88
2023-02-15T11:06:46.623Z,102329.72
2023-02-15T11:09:21.753Z,102321.97
2023-02-15T11:11:53.993Z,102319.59
2023-02-15T11:14:49.237Z,102315.50
2023-02-15T11:17:25.782Z,102305.50
2023-02-15T11:20:21.743Z,102313.72
2023-02-15T11:22:54.363Z,102298.22
2023-02-15T11:25:29.850Z,102303.00
2023-02-15T11:27:58.310Z,102286.16
2023-02-15T11:30:44.790Z,102289.91
2023-02-15T11:33:36.414Z,102280.78
2023-02-15T11:36:13.158Z,102284.06
2023-02-15T11:38:44.401Z,102283.09
2023-02-15T11:41:16.475Z,102276.50
2023-02-15T11:44:05.028Z,102275.84
2023-02-15T11:46:33.209Z,102272.22
2023-02-15T11:49:00.874Z,102271.75
2023-02-15T11:51:29.862Z,102257.94
2023-02-15T11:53:57.461Z,102267.84
2023-02-15T11:56:27.309Z,102256.97
2023-02-15T11:59:08.309Z,102248.81
2023-02-15T12:01:46.629Z,102240.81
2023-02-15T12:04:32.889Z,102249.66
2023-02-15T12:07:12.732Z,102250.50
2023-02-15T12:10:08.054Z,102248.84
2023-02-15T12:12:36.996Z,102236.34
2023-02-15T12:15:08.131Z,102238.97
2023-02-15T12:17:41.006Z,102243.09
2023-02-15T12:20:29.765Z,102246.53
2023-02-15T12:23:08.265Z,102242.84
2023-02-15T12:25:54.625Z,102236.59
2023-02-15T12:28:28.458Z,102237.38
2023-02-15T12:30:58.856Z,102230.91
2023-02-15T12:33:35.272Z,102234.72
2023-02-15T12:36:19.268Z,102227.31
2023-02-15T12:39:04.389Z,102231.25
2023-02-15T12:41:33.148Z,102226.66
2023-02-15T12:44:20.815Z,102224.50
2023-02-15T12:47:10.343Z,102212.22
2023-02-15T12:49:39.490Z,102207.84
2023-02-15T12:52:26.601Z,102216.22
2023-02-15T12:54:54.696Z,102212.47
2023-02-15T12:57:29.955Z,102203.28
2023-02-15T13:00:26.265Z,102186.94
2023-02-15T13:02:57.654Z,102187.25
2023-02-15T13:05:39.759Z,102185.63
2023-02-15T13:08:33.057Z,102173.72
2023-02-15T13:11:10.394Z,102170.72
2023-02-15T13:13:56.191Z,102164.00
2023-02-15T13:16:40.897Z,102161.31
2023-02-15T13:19:27.875Z,102163.94
2023-02-15T13:21:58.691Z,102164.06
2023-02-15T13:24:34.426Z,102147.53
2023-02-15T13:27:15.033Z,102148.97
2023-02-15T13:29:51.693Z,102148.28
2023-02-15T13:32:38.117Z,102154.72
2023-02-15T13:35:10.520Z,102140.81
2023-02-15T13:37:56.448Z,102144.63
2023-02-15T13:40:57.042Z,102129.91
2023-02-15T13:43:30.340Z,102135.56
2023-02-15T13:46:11.712Z,102133.63
2023-02-15T13:49:06.399Z,102139.66
2023-02-15T13:51:37.225Z,102130.53
2023-02-15T13:54:29.050Z,102135.81
2023-02-15T13:56:57.621Z,102129.72
2023-02-15T13:59:50.315Z,102131.59
2023-02-15T14:02:49.883Z,102138.47
2023-02-15T14:05:27.087Z,102131.22
2023-02-15T14:08:05.949Z,102142.47
2023-02-15T14:10:51.008Z,102132.34
2023-02-15T14:13:46.786Z,102138.22
2023-02-15T14:16:43.028Z,102124.50
2023-02-15T14:19:20.331Z,102134.66
2023-02-15T14:21:52.075Z,102133.78
2023-02-15T14:24:32.114Z,102132.66
2023-02-15T14:27:12.173Z,102133.22
2023-02-15T14:29:55.250Z,102137.03
2023-02-15T14:32:36.836Z,102130.16
2023-02-15T14:35:14.187Z,102134.13
2023-02-15T14:37:52.662Z,102135.91
2023-02-15T14:41:04.481Z,102128.09
2023-02-15T14:43:53.735Z,102128.03
2023-02-15T14:46:49.492Z,102124.47
2023-02-15T14:49:23.286Z,102128.19
2023-02-15T14:51:51.442Z,102129.59
2023-02-15T14:54:18.942Z,102128.25
2023-02-15T14:56:47.592Z,102131.59
2023-02-15T14:59:19.529Z,102126.63
2023-02-15T15:01:58.454Z,102127.66
2023-02-15T15:04:49.052Z,102121.88
2023-02-15T15:07:29.226Z,102122.38
2023-02-15T15:10:04.185Z,102121.44
2023-02-15T15:12:33.095Z,102117.34
2023-02-15T15:15:02.316Z,102115.94
2023-02-15T15:17:39.310Z,102120.56
2023-02-15T15:20:26.540Z,102120.91
2023-02-15T15:23:13.218Z,102109.81
2023-02-15T15:26:18.395Z,102118.53
2023-02-15T15:28:45.988Z,102120.97
2023-02-15T15:31:35.104Z,102115.00
2023-02-15T15:34:21.312Z,102114.28
2023-02-15T15:37:20.717Z,102127.53
2023-02-15T15:39:51.689Z,102122.13
2023-02-15T15:42:56.130Z,102116.19
2023-02-15T15:45:47.219Z,102122.47
2023-02-15T15:48:33.522Z,102115.53
2023-02-15T15:51:05.887Z,102121.81
2023-02-15T15:53:43.265Z,102118.75
2023-02-15T15:56:19.440Z,102114.19
2023-02-15T15:58:53.523Z,102117.19
2023-02-15T16:01:30.839Z,102116.94
2023-02-15T16:04:00.207Z,102123.94
2023-02-15T16:06:36.514Z,102121.97
2023-02-15T16:09:29.555Z,102119.72
2023-02-15T16:12:01.401Z,102129.47
2023-02-15T16:14:37.776Z,102126.75
2023-02-15T16:17:09.439Z,102121.50
2023-02-15T16:19:42.257Z,102130.34
2023-02-15T16:22:17.404Z,102131.53
2023-02-15T16:25:02.531Z,102133.13
2023-02-15T16:27:38.109Z,102136.50
2023-02-15T16:30:24.598Z,102136.69
2023-02-15T16:33:04.362Z,102137.84
2023-02-15T16:35:33.263Z,102146.25
2023-02-15T16:38:02.155Z,102157.28
2023-02-15T16:41:04.492Z,102162.00
2023-02-15T16:43:33.746Z,102162.31
2023-02-15T16:46:13.021Z,102166.59
2023-02-15T16:48:44.720Z,102169.31
2023-02-15T16:51:21.674Z,102170.38
2023-02-15T16:53:50.481Z,102172.53
2023-02-15T16:56:25.275Z,102174.41
2023-02-15T16:58:55.573Z,102176.22
2023-02-15T17:01:26.769Z,102177.53
2023-02-15T17:04:31.306Z,102188.03
2023-02-15T17:07:18.008Z,102178.84
2023-02-15T17:09:56.914Z,102197.06
2023-02-15T17:12:47.891Z,102201.41
2023-02-15T17:15:28.952Z,102196.84
2023-02-15T17:18:13.270Z,102196.59
2023-02-15T17:20:44.389Z,102200.66
2023-02-15T17:23:33.430Z,102193.69
2023-02-15T17:26:13.192Z,102200.28
2023-02-15T17:28:49.169Z,102201.94
2023-02-15T17:31:19.758Z,102204.03
2023-02-15T17:33:49.375Z,102195.59
2023-02-15T17:36:22.931Z,102202.28
2023-02-15T17:39:03.869Z,102205.41
2023-02-15T17:41:38.318Z,102203.72
2023-02-15T17:44:08.609Z,102203.16
2023-02-15T17:46:38.917Z,102198.97
2023-02-15T17:49:07.538Z,102201.94
2023-02-15T17:51:35.979Z,102205.63
2023-02-15T17:54:23.452Z,102205.09
2023-02-15T17:56:52.128Z,102212.59
2023-02-15T17:59:20.512Z,102218.56
2023-02-15T18:02:08.782Z,102220.28
2023-02-15T18:04:56.447Z,102218.41
2023-02-15T18:07:42.972Z,102215.13
2023-02-15T18:10:35.334Z,102214.03
2023-02-15T18:13:03.296Z,102227.56
2023-02-15T18:15:31.542Z,102228.84
2023-02-15T18:17:59.572Z,102226.16
2023-02-15T18:20:34.907Z,102233.66
2023-02-15T18:23:03.101Z,102227.13
2023-02-15T18:25:31.147Z,102233.44
2023-02-15T18:27:59.177Z,102233.59
2023-02-15T18:30:28.111Z,102229.50
2023-02-15T18:32:58.859Z,102232.50
2023-02-15T18:35:31.039Z,102228.56
2023-02-15T18:38:01.988Z,102236.63
2023-02-15T18:40:29.769Z,102230.50
2023-02-15T18:42:57.618Z,102238.44
2023-02-15T18:45:32.466Z,102231.63
2023-02-15T18:48:01.327Z,102228.41
2023-02-15T18:50:34.303Z,102228.75
2023-02-15T18:53:07.146Z,102219.56
2023-02-15T18:55:35.624Z,102220.63
2023-02-15T18:58:04.261Z,102225.69
2023-02-15T19:00:35.074Z,102229.28
2023-02-15T19:03:03.440Z,102234.22
2023-02-15T19:05:33.315Z,102231.84
2023-02-15T19:08:02.342Z,102230.06
2023-02-15T19:10:32.598Z,102229.28
2023-02-15T19:13:00.529Z,102231.72
2023-02-15T19:15:30.613Z,102227.38
2023-02-15T19:17:58.728Z,102233.88
2023-02-15T19:20:30.679Z,102235.44
2023-02-15T19:23:01.349Z,102234.06
2023-02-15T19:25:32.780Z,102232.41
2023-02-15T19:28:03.962Z,102234.66
2023-02-15T19:30:33.210Z,102230.53
2023-02-15T19:33:02.250Z,102234.41
2023-02-15T19:35:35.325Z,102233.81
2023-02-15T19:38:08.965Z,102236.47
2023-02-15T19:40:37.230Z,102235.03
2023-02-15T19:43:15.627Z,102226.06
2023-02-15T19:45:45.369Z,102229.41
2023-02-15T19:48:17.368Z,102229.28
2023-02-15T19:50:47.122Z,102241.84
2023-02-15T19:53:26.683Z,102236.47
2023-02-15T19:55:55.444Z,102238.56
2023-02-15T19:58:24.299Z,102239.47
2023-02-15T20:00:52.270Z,102233.84
2023-02-15T20:03:20.558Z,102241.56
2023-02-15T20:05:48.438Z,102246.81
2023-02-15T20:08:22.052Z,102240.91
2023-02-15T20:10:49.854Z,102246.56
2023-02-15T20:13:19.695Z,102243.25
2023-02-15T20:15:50.922Z,102245.47
2023-02-15T20:18:21.085Z,102245.91
2023-02-15T20:20:53.242Z,102242.25
2023-02-15T20:23:31.469Z,102253.28
2023-02-15T20:26:01.357Z,102251.00
2023-02-15T20:28:31.693Z,102258.09
2023-02-15T20:31:00.106Z,102251.16
2023-02-15T20:33:28.921Z,102257.34
2023-02-15T20:35:57.503Z,102256.59
2023-02-15T20:38:29.272Z,102247.34
2023-02-15T20:41:18.162Z,102259.97
2023-02-15T20:43:46.483Z,102260.22
2023-02-15T20:46:14.644Z,102264.41
2023-02-15T20:48:42.269Z,102270.69
2023-02-15T20:51:18.486Z,102262.44
2023-02-15T20:53:48.227Z,102266.56
2023-02-15T20:56:21.359Z,102261.13
2023-02-15T20:58:49.643Z,102269.41
2023-02-15T21:01:20.030Z,102268.06
2023-02-15T21:03:49.123Z,102269.28
2023-02-15T21:06:18.284Z,102272.47
2023-02-15T21:08:46.224Z,102276.13
2023-02-15T21:11:22.786Z,102280.28
2023-02-15T21:13:51.470Z,102272.16
2023-02-15T21:16:20.259Z,102274.41
2023-02-15T21:18:48.838Z,102258.66
2023-02-15T21:21:23.807Z,102271.00
2023-02-15T21:23:53.071Z,102266.84
2023-02-15T21:26:23.421Z,102264.38
2023-02-15T21:28:52.170Z,102265.75
2023-02-15T21:31:25.650Z,102275.81
2023-02-15T21:33:53.513Z,102278.75
2023-02-15T21:36:24.460Z,102268.47
2023-02-15T21:38:53.900Z,102269.66
2023-02-15T21:41:42.845Z,102268.13
2023-02-15T21:44:40.310Z,102272.88
2023-02-15T21:47:48.642Z,102263.06
2023-02-15T21:50:40.911Z,102264.38
2023-02-15T21:53:12.996Z,102261.56
2023-02-15T21:55:41.122Z,102270.25
2023-02-15T21:58:19.543Z,102267.91
2023-02-15T22:00:49.564Z,102258.72
2023-02-15T22:03:17.394Z,102262.25
2023-02-15T22:05:45.819Z,102271.19
2023-02-15T22:08:14.415Z,102272.75
2023-02-15T22:10:43.349Z,102265.44
2023-02-15T22:13:26.415Z,102272.38
2023-02-15T22:15:55.184Z,102270.94
2023-02-15T22:18:28.907Z,102273.59
2023-02-15T22:20:57.622Z,102273.63
2023-02-15T22:23:25.973Z,102276.19
2023-02-15T22:26:06.093Z,102272.72
2023-02-15T22:28:37.063Z,102268.78
2023-02-15T22:31:07.922Z,102279.34
2023-02-15T22:33:36.023Z,102277.78
2023-02-15T22:36:03.812Z,102274.31
2023-02-15T22:38:31.402Z,102267.41
2023-02-15T22:41:04.356Z,102270.31
2023-02-15T22:43:39.134Z,102273.13
2023-02-15T22:46:14.232Z,102275.91
2023-02-15T22:48:43.832Z,102268.28
2023-02-15T22:51:16.271Z,102272.13
2023-02-15T22:53:44.364Z,102270.09
2023-02-15T22:56:23.360Z,102281.28
2023-02-15T22:58:51.761Z,102288.16
2023-02-15T23:01:28.633Z,102276.13
2023-02-15T23:03:56.827Z,102284.69
2023-02-15T23:06:24.524Z,102279.06
2023-02-15T23:08:54.861Z,102281.81
2023-02-15T23:11:24.136Z,102287.53
2023-02-15T23:13:51.672Z,102282.69
2023-02-15T23:16:20.069Z,102286.34
2023-02-15T23:18:49.303Z,102278.41
2023-02-15T23:21:23.260Z,102288.97
2023-02-15T23:23:53.023Z,102283.16
2023-02-15T23:26:31.168Z,102280.72
2023-02-15T23:29:01.596Z,102280.03
2023-02-15T23:31:35.121Z,102280.84
2023-02-15T23:34:13.360Z,102273.59
2023-02-15T23:36:41.020Z,102277.84
2023-02-15T23:39:39.171Z,102278.13
2023-02-15T23:42:11.566Z,102274.53
2023-02-15T23:44:43.298Z,102277.13
2023-02-15T23:47:45.068Z,102268.44
2023-02-15T23:50:28.577Z,102267.56
2023-02-15T23:52:57.500Z,102262.81
2023-02-15T23:55:38.706Z,102265.88
2023-02-15T23:58:12.176Z,102264.84
